Time;durP1;ratioP1;P1;durP2;ratioP2;P2;SDS_P1;SDS_P2;PMS_P1;PMS_P2;Temp;Humidity;BMP_temperature;BMP_pressure;BME280_temperature;BME280_humidity;BME280_pressure;Samples;Min_cycle;Max_cycle;Signal;HPM_P1;HPM_P2
2022/11/13 00:00:00;;;;;;;1.60;0.40;;;;;;;8.03;65.52;102922.59;5022963;28;20245;-74
2022/11/13 00:02:27;;;;;;;4.13;0.77;;;;;;;7.99;65.47;102918.13;5018970;28;20042;-74
2022/11/13 00:04:54;;;;;;;3.00;0.55;;;;;;;7.94;65.47;102906.72;5020133;28;20045;-74
2022/11/13 00:07:21;;;;;;;2.92;0.50;;;;;;;7.97;65.31;102920.72;5022315;28;20084;-75
2022/11/13 00:09:48;;;;;;;5.13;0.73;;;;;;;7.97;65.29;102919.78;5016228;28;20771;-74
2022/11/13 00:12:16;;;;;;;3.45;0.90;;;;;;;7.98;65.36;102918.97;5020732;28;20132;-73
2022/11/13 00:14:44;;;;;;;3.50;1.45;;;;;;;7.95;65.36;102917.16;5019088;28;20050;-74
2022/11/13 00:17:11;;;;;;;5.20;0.63;;;;;;;7.93;65.35;102924.03;5016265;28;20141;-74
2022/11/13 00:19:38;;;;;;;3.22;0.63;;;;;;;7.92;65.41;102919.69;5019332;28;20501;-74
2022/11/13 00:22:05;;;;;;;7.07;1.27;;;;;;;7.89;65.32;102923.09;5020154;28;20075;-75
2022/11/13 00:24:31;;;;;;;3.53;0.65;;;;;;;7.87;65.44;102929.97;5021806;28;20073;-74
2022/11/13 00:26:58;;;;;;;3.40;0.60;;;;;;;7.79;65.56;102918.47;5014171;28;20077;-74
2022/11/13 00:29:26;;;;;;;2.90;0.70;;;;;;;7.83;65.47;102930.75;5014711;28;20495;-73
2022/11/13 00:31:53;;;;;;;2.85;0.70;;;;;;;7.81;65.69;102927.19;5019383;28;20057;-74
2022/11/13 00:34:20;;;;;;;2.40;0.50;;;;;;;7.80;65.60;102927.19;5016410;28;20050;-74
2022/11/13 00:36:47;;;;;;;5.15;0.68;;;;;;;7.73;65.55;102914.81;5020108;28;20049;-74
2022/11/13 00:39:14;;;;;;;4.38;0.60;;;;;;;7.76;65.77;102910.56;5017646;28;20041;-74
2022/11/13 00:41:41;;;;;;;3.20;0.73;;;;;;;7.75;65.64;102919.22;5016686;28;20053;-74
2022/11/13 00:44:08;;;;;;;4.03;0.63;;;;;;;7.69;65.65;102911.25;5019244;28;20059;-75
2022/11/13 00:46:36;;;;;;;2.90;0.68;;;;;;;7.72;65.61;102915.69;5021786;28;20052;-75
2022/11/13 00:49:04;;;;;;;2.85;0.60;;;;;;;7.65;65.86;102910.28;5022175;28;20577;-74
2022/11/13 00:51:31;;;;;;;2.58;0.50;;;;;;;7.67;65.57;102918.13;5018161;28;20070;-74
2022/11/13 00:53:58;;;;;;;7.18;0.75;;;;;;;7.64;65.64;102921.53;5019312;28;20487;-74
2022/11/13 00:56:25;;;;;;;3.45;0.50;;;;;;;7.59;65.71;102909.22;5019594;28;20042;-74
2022/11/13 00:58:51;;;;;;;4.97;0.57;;;;;;;7.62;65.71;102933.59;5019158;28;20129;-74
2022/11/13 01:01:20;;;;;;;2.10;0.50;;;;;;;7.62;65.81;102927.53;5019493;28;20050;-74
2022/11/13 01:03:49;;;;;;;2.63;0.60;;;;;;;7.56;66.14;102922.16;5021769;28;20050;-74
2022/11/13 01:06:18;;;;;;;6.22;0.50;;;;;;;7.60;65.92;102931.81;5014617;28;20141;-73
2022/11/13 01:08:45;;;;;;;4.18;0.43;;;;;;;7.55;65.83;102926.47;5015531;28;20133;-74
2022/11/13 01:11:17;;;;;;;4.60;0.55;;;;;;;7.52;65.84;102921.19;5021497;28;20045;-74
2022/11/13 01:13:45;;;;;;;5.40;0.80;;;;;;;7.56;65.85;102929.97;5019758;28;20052;-73
2022/11/13 01:16:14;;;;;;;6.07;0.88;;;;;;;7.54;65.68;102934.22;5016612;28;20435;-74
2022/11/13 01:18:41;;;;;;;2.13;0.50;;;;;;;7.51;65.75;102928.94;5019773;28;20561;-74
2022/11/13 01:21:12;;;;;;;3.00;0.50;;;;;;;7.51;65.77;102931.53;5019042;28;20072;-73
2022/11/13 01:23:40;;;;;;;1.63;0.50;;;;;;;7.50;65.83;102927.19;5015873;28;20045;-74
2022/11/13 01:26:12;;;;;;;1.20;0.50;;;;;;;7.49;65.85;102928.03;5021348;28;20042;-73
2022/11/13 01:28:39;;;;;;;2.95;0.50;;;;;;;7.44;65.89;102922.69;5019566;28;20057;-74
2022/11/13 01:31:07;;;;;;;3.35;0.55;;;;;;;7.44;66.00;102927.88;5019001;28;20491;-74
2022/11/13 01:33:34;;;;;;;3.88;0.40;;;;;;;7.38;66.12;102918.19;5020467;28;20046;-73
2022/11/13 01:36:02;;;;;;;2.15;0.40;;;;;;;7.39;66.14;102919.94;5021949;28;20136;-73
2022/11/13 01:38:30;;;;;;;2.85;0.40;;;;;;;7.30;65.58;102904.09;5018162;28;20038;-73
2022/11/13 01:40:57;;;;;;;1.42;0.40;;;;;;;7.40;66.14;102932.13;5013640;28;20800;-74
2022/11/13 01:43:31;;;;;;;0.70;0.40;;;;;;;7.40;65.96;102928.66;5014025;28;20053;-74
2022/11/13 01:46:17;;;;;;;3.83;0.50;;;;;;;7.39;66.06;102938.16;5019483;28;20041;-73
2022/11/13 01:48:47;;;;;;;2.85;0.43;;;;;;;7.31;65.82;102926.63;5021883;28;20049;-74
2022/11/13 01:51:18;;;;;;;2.08;0.50;;;;;;;7.36;66.22;102940.66;5022455;28;20494;-73
2022/11/13 01:53:48;;;;;;;4.18;0.50;;;;;;;7.35;66.39;102938.03;5018729;28;20045;-74
2022/11/13 01:56:16;;;;;;;1.27;0.40;;;;;;;7.34;66.13;102942.34;5021686;28;20057;-74
2022/11/13 01:58:45;;;;;;;2.25;0.40;;;;;;;7.32;66.30;102933.63;5022906;28;20045;-73
2022/11/13 02:01:12;;;;;;;2.90;0.55;;;;;;;7.27;66.22;102932.59;5024025;28;20513;-74
2022/11/13 02:03:39;;;;;;;1.42;0.40;;;;;;;7.33;66.13;102940.56;5020280;28;20056;-74
2022/11/13 02:06:07;;;;;;;1.52;0.40;;;;;;;7.30;66.24;102930.09;5024375;28;20049;-74
2022/11/13 02:08:34;;;;;;;3.83;0.38;;;;;;;7.30;66.22;102948.28;5019555;28;20812;-74
2022/11/13 02:11:03;;;;;;;0.93;0.30;;;;;;;7.30;66.26;102948.28;5022875;28;20046;-74
2022/11/13 02:13:30;;;;;;;2.20;0.68;;;;;;;7.29;66.40;102953.44;5016164;28;20581;-75
2022/11/13 02:15:57;;;;;;;4.13;0.50;;;;;;;7.27;66.31;102950.78;5019860;28;20038;-73
2022/11/13 02:18:27;;;;;;;1.88;0.40;;;;;;;7.25;66.28;102955.06;5022897;28;20049;-73
2022/11/13 02:21:02;;;;;;;3.33;0.38;;;;;;;7.20;66.60;102948.84;5016815;28;20050;-74
2022/11/13 02:23:42;;;;;;;1.38;0.40;;;;;;;7.24;66.27;102955.91;5021480;28;20042;-74
2022/11/13 02:26:12;;;;;;;3.05;0.50;;;;;;;7.23;66.24;102961.94;5020684;28;20144;-74
2022/11/13 02:28:38;;;;;;;3.50;0.60;;;;;;;7.20;66.45;102961.84;5018038;28;20049;-74
2022/11/13 02:31:07;;;;;;;2.90;0.50;;;;;;;7.20;66.44;102967.06;5020903;28;20569;-74
2022/11/13 02:33:35;;;;;;;0.85;0.32;;;;;;;7.19;66.13;102981.75;5016199;28;20064;-74
2022/11/13 02:36:02;;;;;;;1.73;0.40;;;;;;;7.18;66.20;102989.50;5016346;28;20109;-74
2022/11/13 02:38:29;;;;;;;3.17;0.50;;;;;;;7.17;66.33;102990.31;5018496;28;21143;-74
2022/11/13 02:40:56;;;;;;;3.00;0.30;;;;;;;7.14;66.52;102978.16;5020116;28;20050;-73
2022/11/13 02:43:25;;;;;;;2.58;0.43;;;;;;;7.10;66.48;102978.88;5014906;28;20062;-74
2022/11/13 02:45:52;;;;;;;2.97;0.43;;;;;;;7.12;66.57;102984.13;5021157;28;20642;-74
2022/11/13 02:48:19;;;;;;;4.45;1.52;;;;;;;7.09;66.61;102981.44;5019687;28;20132;-76
2022/11/13 02:50:47;;;;;;;3.75;0.57;;;;;;;7.09;66.53;102981.44;5019219;28;20670;-74
2022/11/13 02:53:14;;;;;;;4.40;0.40;;;;;;;7.06;66.44;102977.03;5020199;28;20513;-74
2022/11/13 02:55:41;;;;;;;1.60;0.30;;;;;;;7.05;66.57;102976.97;5019028;28;20502;-75
2022/11/13 02:58:07;;;;;;;4.03;0.40;;;;;;;7.03;66.72;102983.81;5018011;28;20056;-75
2022/11/13 03:00:36;;;;;;;2.65;0.35;;;;;;;7.01;66.21;102980.31;5022478;28;20057;-74
2022/11/13 03:03:03;;;;;;;1.20;0.77;;;;;;;6.93;66.53;102969.66;5021389;28;20442;-74
2022/11/13 03:05:30;;;;;;;3.28;0.50;;;;;;;6.99;66.50;102986.31;5023926;28;20050;-75
2022/11/13 03:07:56;;;;;;;1.25;0.40;;;;;;;6.98;66.29;102978.50;5020634;28;20046;-74
2022/11/13 03:10:23;;;;;;;2.58;0.52;;;;;;;6.96;66.57;102975.81;5017605;28;20050;-75
2022/11/13 03:12:50;;;;;;;1.50;0.55;;;;;;;6.73;66.42;102943.03;5013480;28;20058;-74
2022/11/13 03:15:17;;;;;;;1.05;0.30;;;;;;;6.86;66.50;102973.78;5016030;28;20042;-74
2022/11/13 03:17:45;;;;;;;0.73;0.30;;;;;;;6.92;66.43;102992.16;5020755;28;20042;-74
2022/11/13 03:20:12;;;;;;;1.40;0.60;;;;;;;6.90;66.28;102991.22;5021324;28;20052;-74
2022/11/13 03:22:39;;;;;;;2.08;0.40;;;;;;;6.83;66.37;102983.19;5018267;28;20071;-74
2022/11/13 03:25:07;;;;;;;2.08;0.40;;;;;;;6.89;66.76;102994.66;5020427;28;20048;-74
2022/11/13 03:27:34;;;;;;;1.80;0.50;;;;;;;6.87;66.52;102993.72;5023566;28;20056;-75
2022/11/13 03:30:01;;;;;;;1.92;0.60;;;;;;;6.86;66.71;102989.38;5020043;28;20060;-74
2022/11/13 03:32:28;;;;;;;2.17;0.50;;;;;;;6.85;66.78;102987.59;5018070;28;20057;-74
2022/11/13 03:34:56;;;;;;;4.63;0.30;;;;;;;6.83;66.60;102991.88;5018482;28;20049;-74
2022/11/13 03:37:23;;;;;;;3.13;0.35;;;;;;;6.83;66.44;102994.47;5019866;28;20042;-75
2022/11/13 03:39:50;;;;;;;3.55;0.45;;;;;;;6.80;66.44;102996.94;5014386;28;20813;-74
2022/11/13 03:42:17;;;;;;;1.40;0.50;;;;;;;6.76;66.70;102987.31;5020426;28;20060;-75
2022/11/13 03:44:43;;;;;;;0.52;0.32;;;;;;;6.75;66.37;102996.81;5019906;28;20052;-74
2022/11/13 03:47:10;;;;;;;4.25;0.70;;;;;;;6.73;66.63;102987.19;5015911;28;20056;-75
2022/11/13 03:49:37;;;;;;;1.48;0.50;;;;;;;6.66;66.46;102972.22;5014712;28;20041;-75
2022/11/13 03:52:05;;;;;;;3.10;0.40;;;;;;;6.73;66.46;102989.81;5018237;28;20049;-74
2022/11/13 03:54:32;;;;;;;2.20;0.30;;;;;;;6.71;66.49;102983.66;5019058;28;20050;-70
2022/11/13 03:56:59;;;;;;;2.75;0.50;;;;;;;6.68;66.42;102979.25;5019419;28;20046;-74
2022/11/13 03:59:26;;;;;;;1.38;0.30;;;;;;;6.68;66.61;102991.34;5017795;28;20399;-74
2022/11/13 04:01:53;;;;;;;2.72;0.35;;;;;;;6.67;66.42;102997.41;5022376;28;20128;-74
2022/11/13 04:04:20;;;;;;;3.22;0.40;;;;;;;6.63;66.62;102992.91;5024216;28;20061;-74
2022/11/13 04:06:47;;;;;;;3.00;0.40;;;;;;;6.64;66.50;102992.09;5021287;28;20061;-74
2022/11/13 04:09:15;;;;;;;2.13;0.47;;;;;;;6.61;66.60;102987.69;5019822;28;20048;-75
2022/11/13 04:11:42;;;;;;;1.50;0.30;;;;;;;6.60;66.61;102990.22;5020509;28;20415;-74
2022/11/13 04:14:09;;;;;;;1.58;0.30;;;;;;;6.59;66.47;102993.66;5020861;28;20057;-74
2022/11/13 04:16:36;;;;;;;0.82;0.40;;;;;;;6.57;66.56;102996.19;5020250;28;20062;-74
2022/11/13 04:19:03;;;;;;;4.32;0.30;;;;;;;6.57;66.64;103000.50;5021990;28;20159;-74
2022/11/13 04:21:29;;;;;;;0.85;0.20;;;;;;;6.54;66.72;102990.88;5018405;28;20046;-74
2022/11/13 04:23:56;;;;;;;3.35;0.30;;;;;;;6.23;66.83;102942.25;5018047;28;20061;-76
2022/11/13 04:26:25;;;;;;;3.25;0.32;;;;;;;6.49;66.64;102988.16;5017004;28;20454;-74
2022/11/13 04:28:51;;;;;;;1.27;0.30;;;;;;;6.49;66.64;103001.13;5018130;28;20046;-74
2022/11/13 04:31:18;;;;;;;0.82;0.30;;;;;;;6.46;66.83;102998.44;5018877;28;20060;-75
2022/11/13 04:33:45;;;;;;;0.70;0.30;;;;;;;6.37;66.73;102986.84;5018510;28;20426;-74
2022/11/13 04:36:12;;;;;;;0.75;0.30;;;;;;;6.43;66.34;103000.94;5017830;28;20053;-74
2022/11/13 04:38:39;;;;;;;2.28;0.40;;;;;;;6.42;66.61;103001.75;5023019;28;20410;-73
2022/11/13 04:43:52;;;;;;;0.90;0.40;;;;;;;6.38;66.57;103001.59;5019515;28;20052;-74
2022/11/13 04:46:18;;;;;;;2.30;0.30;;;;;;;6.37;66.70;103007.59;5016634;28;20056;-74
2022/11/13 04:48:45;;;;;;;1.40;0.50;;;;;;;6.35;66.47;102999.78;5019450;28;20045;-74
2022/11/13 04:51:12;;;;;;;0.90;0.35;;;;;;;6.35;66.34;103019.63;5020777;28;20053;-75
2022/11/13 04:53:39;;;;;;;2.10;0.30;;;;;;;6.33;66.62;103008.34;5019888;28;20048;-74
2022/11/13 04:56:06;;;;;;;1.70;0.40;;;;;;;6.30;66.39;103009.13;5017305;28;20042;-74
2022/11/13 04:58:33;;;;;;;2.10;0.40;;;;;;;6.29;66.45;103009.97;5018708;28;20060;-74
2022/11/13 05:01:02;;;;;;;2.15;0.52;;;;;;;6.20;66.77;102999.22;5019515;28;20411;-74
2022/11/13 05:03:29;;;;;;;1.63;0.30;;;;;;;6.25;66.69;103011.53;5017705;28;20430;-74
2022/11/13 05:06:02;;;;;;;1.70;0.20;;;;;;;6.26;66.60;103015.00;5017747;28;20073;-74
2022/11/13 05:08:29;;;;;;;4.40;0.60;;;;;;;6.25;66.71;103015.84;5017666;28;20467;-74
2022/11/13 05:10:56;;;;;;;0.98;0.40;;;;;;;6.24;66.81;103014.09;5017877;28;20529;-77
2022/11/13 05:13:22;;;;;;;1.60;0.32;;;;;;;6.21;66.57;103008.81;5013568;28;20444;-74
2022/11/13 05:15:49;;;;;;;3.00;0.38;;;;;;;6.19;66.61;103008.72;5022609;28;20048;-75
2022/11/13 05:18:18;;;;;;;1.80;0.40;;;;;;;6.08;66.75;102994.50;5019922;28;20049;-74
2022/11/13 05:20:45;;;;;;;1.95;0.30;;;;;;;6.18;66.53;103019.06;5017961;28;20490;-74
2022/11/13 05:23:12;;;;;;;0.85;0.30;;;;;;;6.15;66.53;103016.34;5021718;28;20103;-74
2022/11/13 05:25:38;;;;;;;1.30;0.40;;;;;;;6.14;66.64;103015.47;5020682;28;20045;-75
2022/11/13 05:28:05;;;;;;;1.30;0.45;;;;;;;6.11;66.32;103012.75;5020329;28;20509;-74
2022/11/13 05:30:32;;;;;;;0.80;0.30;;;;;;;6.10;66.49;103012.72;5019316;28;20057;-74
2022/11/13 05:32:59;;;;;;;2.15;0.40;;;;;;;6.02;66.55;102987.38;5020525;28;20053;-74
2022/11/13 05:35:27;;;;;;;4.25;0.85;;;;;;;6.06;66.49;102994.47;5021242;28;20041;-74
2022/11/13 05:37:54;;;;;;;2.15;0.40;;;;;;;6.02;66.55;102989.97;5020840;28;20104;-74
2022/11/13 05:40:21;;;;;;;1.05;0.40;;;;;;;6.03;66.60;102980.47;5022495;28;20060;-74
2022/11/13 05:42:48;;;;;;;1.92;0.40;;;;;;;6.02;66.76;102989.97;5021104;28;20046;-75
2022/11/13 05:45:15;;;;;;;1.30;0.30;;;;;;;5.98;66.33;102992.41;5017819;28;20041;-75
2022/11/13 05:47:42;;;;;;;0.32;0.20;;;;;;;5.96;66.54;102987.16;5021005;28;20056;-74
2022/11/13 05:50:10;;;;;;;3.15;0.50;;;;;;;5.97;66.77;103004.47;5026407;28;20045;-75
2022/11/13 05:52:38;;;;;;;4.70;0.40;;;;;;;5.96;66.40;103009.63;5021500;28;20052;-75
2022/11/13 05:55:07;;;;;;;3.50;0.30;;;;;;;5.94;66.63;103012.16;5021567;28;20050;-75
2022/11/13 05:57:33;;;;;;;3.22;0.85;;;;;;;5.87;66.61;103007.56;5024672;28;20053;-75
2022/11/13 06:00:00;;;;;;;0.43;0.20;;;;;;;5.91;66.64;103019.78;5023385;28;20061;-75
2022/11/13 06:02:27;;;;;;;3.53;0.30;;;;;;;5.89;66.61;103012.78;5025413;28;20053;-75
2022/11/13 06:04:54;;;;;;;5.22;0.30;;;;;;;5.84;66.85;103004.84;5021741;28;20053;-74
2022/11/13 06:07:21;;;;;;;1.05;0.60;;;;;;;5.86;66.68;103000.56;5022686;28;20053;-75
2022/11/13 06:09:49;;;;;;;1.40;0.20;;;;;;;5.83;66.99;102995.28;5018100;28;20132;-76
2022/11/13 06:12:16;;;;;;;0.47;0.30;;;;;;;5.83;66.47;103000.47;5019729;28;20052;-75
2022/11/13 06:14:43;;;;;;;2.05;0.30;;;;;;;5.82;67.08;103012.56;5019327;28;20601;-75
2022/11/13 06:17:10;;;;;;;3.85;1.20;;;;;;;5.83;66.87;103018.63;5018226;28;20054;-75
2022/11/13 06:19:37;;;;;;;1.40;0.30;;;;;;;5.82;66.65;103019.47;5019112;28;20041;-75
2022/11/13 06:22:03;;;;;;;0.82;0.30;;;;;;;5.81;66.72;103020.28;5020007;28;20053;-74
2022/11/13 06:24:30;;;;;;;1.02;0.30;;;;;;;5.78;66.67;103017.59;5018022;28;20522;-74
2022/11/13 06:26:59;;;;;;;0.52;0.20;;;;;;;5.77;66.84;103028.78;5019444;28;20045;-75
2022/11/13 06:29:25;;;;;;;1.65;0.30;;;;;;;5.80;66.60;103023.69;5019963;28;20050;-75
2022/11/13 06:31:52;;;;;;;0.47;0.30;;;;;;;5.73;66.84;103017.41;5021344;28;20054;-78
2022/11/13 06:34:19;;;;;;;2.17;0.50;;;;;;;5.75;66.84;103020.94;5020893;28;20049;-75
2022/11/13 06:36:46;;;;;;;2.58;0.30;;;;;;;5.75;66.81;103036.50;5018339;28;20054;-75
2022/11/13 06:39:13;;;;;;;1.05;0.40;;;;;;;5.76;66.55;103047.75;5017830;28;20046;-75
2022/11/13 06:41:40;;;;;;;2.45;0.32;;;;;;;5.73;67.15;103052.84;5016551;28;20052;-75
2022/11/13 06:44:08;;;;;;;0.88;0.20;;;;;;;5.71;66.92;103041.50;5018717;28;20049;-75
2022/11/13 06:46:35;;;;;;;1.45;0.30;;;;;;;5.69;66.64;103044.03;5022090;28;20050;-75
2022/11/13 06:49:02;;;;;;;1.10;0.30;;;;;;;5.63;67.15;103031.75;5018667;28;20050;-75
2022/11/13 06:51:30;;;;;;;0.65;0.30;;;;;;;5.66;67.13;103032.66;5023217;28;20728;-75
2022/11/13 06:53:58;;;;;;;0.77;0.20;;;;;;;5.64;66.77;103040.41;5019847;28;20044;-75
2022/11/13 06:56:25;;;;;;;0.60;0.20;;;;;;;5.61;67.17;103043.75;5017825;28;20521;-75
2022/11/13 06:58:52;;;;;;;1.13;0.30;;;;;;;5.60;66.79;103047.16;5017559;28;20124;-75
2022/11/13 07:01:22;;;;;;;2.28;0.30;;;;;;;5.58;66.91;103043.66;5018482;28;20066;-75
2022/11/13 07:03:49;;;;;;;4.45;1.60;;;;;;;5.57;66.87;103044.44;5017997;28;20806;-75
2022/11/13 07:06:18;;;;;;;4.20;0.30;;;;;;;5.56;67.00;103047.88;5018871;28;20510;-75
2022/11/13 07:08:46;;;;;;;2.25;0.25;;;;;;;5.50;66.72;103045.06;5016956;28;20392;-75
2022/11/13 07:11:16;;;;;;;0.90;0.20;;;;;;;5.49;66.75;103053.63;5019563;28;20486;-75
2022/11/13 07:13:44;;;;;;;1.00;0.38;;;;;;;5.51;67.14;103062.38;5016919;28;20049;-75
2022/11/13 07:16:12;;;;;;;1.25;0.30;;;;;;;5.51;66.88;103069.28;5020396;28;20064;-75
2022/11/13 07:18:40;;;;;;;2.42;0.30;;;;;;;5.48;67.16;103070.03;5020559;28;20494;-75
2022/11/13 07:21:09;;;;;;;1.55;0.40;;;;;;;5.48;66.87;103083.00;5017886;28;20512;-76
2022/11/13 07:23:41;;;;;;;2.58;0.30;;;;;;;5.49;67.33;103094.22;5013003;28;20053;-75
2022/11/13 07:26:09;;;;;;;0.65;0.28;;;;;;;5.38;67.46;103080.88;5019432;28;20103;-77
2022/11/13 07:28:36;;;;;;;0.50;0.20;;;;;;;5.44;66.87;103094.06;5017863;28;20052;-77
2022/11/13 07:31:03;;;;;;;1.95;0.30;;;;;;;5.50;67.83;103101.22;5016248;28;20056;-77
2022/11/13 07:33:30;;;;;;;3.45;0.45;;;;;;;5.37;67.23;103073.91;5016467;28;20052;-78
2022/11/13 07:35:59;;;;;;;1.52;0.30;;;;;;;5.40;67.57;103081.78;5021353;28;20050;-77
2022/11/13 07:38:26;;;;;;;1.08;0.30;;;;;;;5.45;67.71;103082.00;5017864;28;20140;-77
2022/11/13 07:40:53;;;;;;;0.55;0.28;;;;;;;5.40;67.93;103079.22;5020076;28;20132;-77
2022/11/13 07:43:20;;;;;;;3.88;0.30;;;;;;;5.49;67.86;103095.13;5021166;28;20049;-77
2022/11/13 07:45:53;;;;;;;2.53;0.30;;;;;;;5.49;67.56;103096.81;5017620;28;20045;-77
2022/11/13 07:48:20;;;;;;;1.30;0.30;;;;;;;5.50;67.86;103096.03;5017442;28;20061;-77
2022/11/13 07:50:47;;;;;;;0.50;0.30;;;;;;;5.39;67.80;103078.31;5025271;28;20136;-76
2022/11/13 07:53:17;;;;;;;0.70;0.28;;;;;;;5.38;67.49;103073.09;5016989;28;20137;-76
2022/11/13 07:55:44;;;;;;;0.50;0.32;;;;;;;5.49;67.43;103084.75;5018938;28;20045;-76
2022/11/13 07:58:11;;;;;;;4.10;0.52;;;;;;;5.49;67.96;103087.34;5022335;28;20077;-78
2022/11/13 08:00:38;;;;;;;2.13;1.05;;;;;;;5.45;67.48;103080.28;5018695;28;20058;-77
2022/11/13 08:03:06;;;;;;;1.92;0.30;;;;;;;5.43;67.73;103073.25;5021188;28;20423;-78
2022/11/13 08:05:34;;;;;;;0.80;0.30;;;;;;;5.44;67.46;103077.63;5023400;28;20057;-77
2022/11/13 08:08:01;;;;;;;2.67;0.60;;;;;;;5.49;67.54;103079.56;5025570;28;20143;-77
2022/11/13 08:10:29;;;;;;;1.30;0.30;;;;;;;5.49;67.86;103089.94;5017584;28;20053;-76
2022/11/13 08:13:00;;;;;;;1.40;0.30;;;;;;;5.51;67.84;103092.59;5015419;28;20053;-76
2022/11/13 08:15:28;;;;;;;0.80;0.40;;;;;;;5.34;67.55;103076.38;5016198;28;20042;-77
2022/11/13 08:17:55;;;;;;;2.20;0.40;;;;;;;5.51;68.23;103109.03;5015446;28;20126;-77
2022/11/13 08:20:22;;;;;;;0.55;0.30;;;;;;;5.51;67.56;103108.16;5016160;28;20049;-77
2022/11/13 08:22:49;;;;;;;1.10;0.32;;;;;;;5.52;68.29;103130.66;5022648;28;20056;-79
2022/11/13 08:25:16;;;;;;;4.18;0.40;;;;;;;5.51;67.57;103122.00;5028758;28;20041;-79
2022/11/13 08:27:45;;;;;;;3.25;0.50;;;;;;;5.52;67.88;103125.47;5017662;28;20054;-79
2022/11/13 08:30:14;;;;;;;1.58;0.38;;;;;;;5.49;67.96;103125.34;5021236;28;20121;-79
2022/11/13 08:32:41;;;;;;;0.30;0.20;;;;;;;5.47;68.11;103117.53;5020535;28;20482;-77
2022/11/13 08:35:09;;;;;;;0.57;0.38;;;;;;;5.37;68.05;103094.63;5017691;28;20570;-77
2022/11/13 08:37:35;;;;;;;1.50;0.40;;;;;;;5.46;68.56;103110.53;5013176;28;20112;-75
2022/11/13 08:40:02;;;;;;;0.40;0.30;;;;;;;5.44;68.14;103109.63;5014994;28;20053;-76
2022/11/13 08:42:29;;;;;;;0.90;0.30;;;;;;;5.52;68.47;103134.16;5012369;28;20128;-76
2022/11/13 08:44:58;;;;;;;3.13;0.40;;;;;;;5.51;68.33;103134.97;5019663;28;20056;-74
2022/11/13 08:47:27;;;;;;;2.55;0.32;;;;;;;5.56;68.47;103148.13;5016760;28;20041;-74
2022/11/13 08:49:54;;;;;;;0.63;0.38;;;;;;;5.57;68.80;103150.75;5017224;28;20052;-74
2022/11/13 08:52:22;;;;;;;2.33;0.40;;;;;;;5.54;68.62;103145.44;5020232;28;20051;-76
2022/11/13 08:54:49;;;;;;;3.33;0.40;;;;;;;5.36;68.87;103113.63;5015299;28;20069;-77
2022/11/13 08:57:16;;;;;;;0.93;0.38;;;;;;;5.45;68.95;103121.75;5017822;28;21241;-75
2022/11/13 08:59:43;;;;;;;7.20;1.15;;;;;;;5.61;69.13;103146.59;5018212;28;20140;-76
2022/11/13 09:02:14;;;;;;;1.52;0.40;;;;;;;5.60;69.18;103140.50;5021073;28;20050;-76
2022/11/13 09:04:41;;;;;;;0.57;0.30;;;;;;;5.67;69.28;103156.34;5023867;28;20132;-76
2022/11/13 09:07:10;;;;;;;3.10;0.30;;;;;;;5.53;69.63;103127.25;5024568;28;20129;-76
2022/11/13 09:09:37;;;;;;;3.72;0.57;;;;;;;5.73;69.41;103151.38;5026024;28;20066;-76
2022/11/13 09:12:04;;;;;;;1.88;0.47;;;;;;;5.71;69.55;103140.94;5024649;28;20062;-75
2022/11/13 09:14:31;;;;;;;0.95;0.35;;;;;;;5.76;69.44;103154.97;5019649;28;20053;-76
2022/11/13 09:16:58;;;;;;;2.25;1.33;;;;;;;5.80;69.70;103153.38;5017979;28;20053;-76
2022/11/13 09:19:27;;;;;;;1.40;0.30;;;;;;;5.72;69.60;103127.16;5020739;28;20053;-76
2022/11/13 09:21:54;;;;;;;1.75;0.30;;;;;;;5.86;69.91;103153.63;5019840;28;20050;-76
2022/11/13 09:24:21;;;;;;;0.70;0.40;;;;;;;5.74;69.97;103124.63;5021235;28;20410;-76
2022/11/13 09:26:48;;;;;;;8.50;1.70;;;;;;;5.93;69.86;103150.47;5023297;28;20053;-76
2022/11/13 09:29:15;;;;;;;1.10;0.40;;;;;;;5.95;69.95;103148.84;5024455;28;20068;-74
2022/11/13 09:31:42;;;;;;;4.65;0.40;;;;;;;5.99;70.27;103155.91;5022216;28;20045;-74
2022/11/13 09:34:09;;;;;;;0.85;0.50;;;;;;;6.02;70.39;103150.81;5023819;28;20075;-74
2022/11/13 09:36:38;;;;;;;2.08;0.50;;;;;;;6.06;70.76;103160.53;5022875;28;20042;-73
2022/11/13 09:39:05;;;;;;;1.23;0.40;;;;;;;6.11;70.83;103165.88;5022783;28;20056;-74
2022/11/13 09:41:37;;;;;;;9.05;3.85;;;;;;;6.14;71.21;103173.75;5020734;28;20487;-75
2022/11/13 09:44:12;;;;;;;9.20;4.38;;;;;;;6.16;70.71;103171.25;5018510;28;20065;-74
2022/11/13 09:46:43;;;;;;;12.63;4.90;;;;;;;6.16;71.09;103166.94;5025537;28;20071;-74
2022/11/13 09:49:16;;;;;;;4.93;3.05;;;;;;;6.22;71.07;103168.88;5021868;28;20050;-74
2022/11/13 09:51:50;;;;;;;4.88;1.80;;;;;;;6.25;71.27;103164.69;5017113;28;20045;-74
2022/11/13 09:54:17;;;;;;;6.47;2.17;;;;;;;6.20;71.38;103145.44;5020552;28;20091;-74
2022/11/13 09:56:50;;;;;;;6.85;1.50;;;;;;;6.30;71.55;103167.47;5020760;28;20049;-74
2022/11/13 09:59:25;;;;;;;5.53;2.20;;;;;;;6.34;71.41;103161.53;5017054;28;20053;-74
2022/11/13 10:02:02;;;;;;;4.22;1.60;;;;;;;6.47;71.50;103170.69;5022175;28;20054;-73
2022/11/13 10:04:40;;;;;;;3.03;1.48;;;;;;;6.50;71.71;103169.06;5024386;28;20058;-76
2022/11/13 10:07:27;;;;;;;2.65;0.90;;;;;;;6.57;71.50;103182.28;5018856;28;20045;-73
2022/11/13 10:10:02;;;;;;;6.55;0.77;;;;;;;6.55;71.59;103178.75;5023953;28;20041;-74
2022/11/13 10:12:32;;;;;;;1.17;0.93;;;;;;;6.53;71.56;103165.72;5020157;28;20051;-74
2022/11/13 10:15:02;;;;;;;1.30;0.73;;;;;;;6.69;71.51;103177.56;5021663;28;20056;-74
2022/11/13 10:17:36;;;;;;;1.77;0.82;;;;;;;6.75;71.48;103175.16;5019666;28;20058;-74
2022/11/13 10:20:10;;;;;;;2.33;0.90;;;;;;;6.78;71.70;103180.47;5021635;28;20045;-74
2022/11/13 10:22:41;;;;;;;1.25;0.95;;;;;;;6.79;71.60;103182.22;5019720;28;20520;-74
2022/11/13 10:25:15;;;;;;;1.77;1.00;;;;;;;6.82;71.61;103177.13;5019910;28;20057;-74
2022/11/13 10:27:42;;;;;;;6.63;1.05;;;;;;;6.80;71.48;103149.34;5001720;28;20541;-74
2022/11/13 10:30:15;;;;;;;3.70;0.90;;;;;;;6.92;71.42;103171.44;5026840;28;20044;-73
2022/11/13 10:32:43;;;;;;;2.90;0.63;;;;;;;6.95;71.52;103165.47;5025830;28;20049;-74
2022/11/13 10:35:24;;;;;;;0.95;0.50;;;;;;;6.86;71.79;103153.06;5021633;28;20050;-74
2022/11/13 10:38:00;;;;;;;3.30;0.55;;;;;;;7.06;71.58;103184.00;5020886;28;20049;-73
2022/11/13 10:40:28;;;;;;;4.03;0.75;;;;;;;7.08;71.61;103177.16;5020673;28;20053;-74
2022/11/13 10:43:05;;;;;;;2.63;0.55;;;;;;;7.10;71.27;103173.78;5018462;28;20050;-74
2022/11/13 10:45:32;;;;;;;1.05;0.60;;;;;;;7.16;71.45;103175.72;5021631;28;20046;-74
2022/11/13 10:47:59;;;;;;;1.02;0.50;;;;;;;7.19;71.45;103155.03;5018245;28;20045;-74
2022/11/13 10:50:28;;;;;;;2.38;0.55;;;;;;;7.15;71.57;103148.84;5022235;28;20701;-74
2022/11/13 10:52:57;;;;;;;2.15;0.40;;;;;;;7.24;71.54;103182.06;5018808;28;20058;-73
2022/11/13 10:55:35;;;;;;;5.35;2.00;;;;;;;7.21;71.33;103167.25;5021278;28;20057;-73
2022/11/13 10:58:05;;;;;;;2.28;0.50;;;;;;;7.31;71.62;103184.03;5018753;28;20111;-73
2022/11/13 11:00:34;;;;;;;1.15;0.50;;;;;;;7.33;71.52;103173.69;5017759;28;20083;-74
2022/11/13 11:03:01;;;;;;;0.60;0.40;;;;;;;7.39;71.47;103173.88;5020914;28;20530;-74
2022/11/13 11:05:29;;;;;;;2.13;0.52;;;;;;;7.24;71.47;103147.38;5024401;28;20056;-73
2022/11/13 11:07:58;;;;;;;2.53;0.35;;;;;;;7.43;71.32;103183.56;5019724;28;20053;-73
2022/11/13 11:10:32;;;;;;;2.33;0.50;;;;;;;7.47;71.18;103174.16;5016805;28;20988;-73
2022/11/13 11:13:03;;;;;;;2.03;0.50;;;;;;;7.51;71.06;103181.22;5023973;28;20037;-75
2022/11/13 11:15:41;;;;;;;2.35;0.50;;;;;;;7.54;71.07;103179.63;5020470;28;20053;-73
2022/11/13 11:18:22;;;;;;;2.17;0.43;;;;;;;7.56;71.17;103174.44;5021527;28;20046;-76
2022/11/13 11:20:52;;;;;;;3.33;0.65;;;;;;;7.58;70.93;103170.19;5020800;28;20075;-75
2022/11/13 11:23:26;;;;;;;0.90;0.43;;;;;;;7.50;71.10;103143.03;5017290;28;20519;-75
2022/11/13 11:25:58;;;;;;;1.60;0.40;;;;;;;7.62;71.19;103164.22;5021217;28;20041;-74
2022/11/13 11:28:35;;;;;;;1.25;0.47;;;;;;;7.65;70.97;103162.59;5019205;28;20045;-75
2022/11/13 11:31:12;;;;;;;2.97;0.55;;;;;;;7.52;70.95;103139.66;5020274;28;20053;-75
2022/11/13 11:33:49;;;;;;;3.08;0.40;;;;;;;7.64;70.73;103159.97;5017820;28;20900;-75
2022/11/13 11:36:25;;;;;;;1.35;0.40;;;;;;;7.68;70.87;103169.63;5020862;28;20045;-75
2022/11/13 11:39:00;;;;;;;5.07;0.47;;;;;;;7.64;70.96;103158.25;5019482;28;20049;-75
2022/11/13 11:41:34;;;;;;;2.45;0.50;;;;;;;7.70;70.99;103152.34;5017766;28;20050;-75